createdAt,value
2018-03-21T00:00:41.320Z,0.00
2018-03-21T00:01:41.299Z,0.00
2018-03-21T00:02:41.298Z,0.00
2018-03-21T00:03:41.290Z,0.00
2018-03-21T00:05:02.302Z,0.00
2018-03-21T00:05:41.274Z,0.00
2018-03-21T00:06:41.270Z,0.00
2018-03-21T00:07:41.264Z,0.00
2018-03-21T00:08:41.245Z,0.00
2018-03-21T00:09:41.242Z,0.00
2018-03-21T00:11:02.245Z,0.00
2018-03-21T00:11:41.229Z,0.00
2018-03-21T00:12:41.221Z,0.00
2018-03-21T00:13:41.213Z,0.00
2018-03-21T00:14:41.214Z,0.00
2018-03-21T00:15:41.202Z,0.00
2018-03-21T00:17:02.207Z,0.00
2018-03-21T00:17:41.192Z,0.00
2018-03-21T00:18:41.187Z,0.00
2018-03-21T00:19:41.177Z,0.00
2018-03-21T00:20:41.164Z,0.00
2018-03-21T00:21:41.156Z,0.00
2018-03-21T00:23:02.158Z,0.00
2018-03-21T00:23:41.146Z,0.00
2018-03-21T00:24:41.135Z,0.00
2018-03-21T00:25:41.138Z,0.00
2018-03-21T00:26:41.123Z,0.00
2018-03-21T00:27:41.118Z,0.00
2018-03-21T00:29:02.115Z,0.00
2018-03-21T00:29:41.112Z,0.00
2018-03-21T00:30:41.098Z,0.00
2018-03-21T00:31:41.088Z,0.00
2018-03-21T00:32:41.084Z,0.00
2018-03-21T00:33:41.075Z,0.00
2018-03-21T00:35:02.078Z,0.00
2018-03-21T00:35:41.058Z,0.00
2018-03-21T00:36:41.052Z,0.00
2018-03-21T00:37:41.045Z,0.00
2018-03-21T00:38:41.043Z,0.00
2018-03-21T00:39:41.034Z,0.00
2018-03-21T00:41:02.034Z,0.00
2018-03-21T00:41:41.018Z,0.00
2018-03-21T00:42:41.019Z,0.00
2018-03-21T00:43:41.008Z,0.00
2018-03-21T00:44:41.003Z,0.00
2018-03-21T00:45:40.994Z,0.00
2018-03-21T00:47:01.996Z,0.00
2018-03-21T00:47:40.980Z,0.00
2018-03-21T00:48:40.972Z,0.00
2018-03-21T00:49:40.960Z,0.00
2018-03-21T00:50:40.956Z,0.00
2018-03-21T00:51:40.950Z,0.00
2018-03-21T00:53:01.950Z,0.00
2018-03-21T00:53:40.942Z,0.00
2018-03-21T00:54:40.928Z,0.00
2018-03-21T00:55:40.925Z,0.00
2018-03-21T00:56:40.930Z,0.00
2018-03-21T00:57:40.907Z,0.00
2018-03-21T00:59:01.913Z,0.00
2018-03-21T00:59:40.896Z,0.00
2018-03-21T01:00:40.890Z,0.00
2018-03-21T01:01:40.880Z,0.00
2018-03-21T01:02:40.869Z,0.00
2018-03-21T01:03:40.866Z,0.00
2018-03-21T01:05:01.868Z,0.00
2018-03-21T01:05:40.850Z,0.00
2018-03-21T01:06:40.850Z,0.00
2018-03-21T01:07:40.845Z,0.00
2018-03-21T01:08:40.832Z,0.00
2018-03-21T01:09:40.874Z,0.00
2018-03-21T01:11:01.829Z,0.00
2018-03-21T01:11:40.816Z,0.00
2018-03-21T01:12:40.807Z,0.00
2018-03-21T01:13:40.795Z,0.00
2018-03-21T01:14:40.802Z,0.00
2018-03-21T01:15:40.785Z,0.00
2018-03-21T01:17:01.783Z,0.00
2018-03-21T01:17:40.772Z,0.00
2018-03-21T01:18:40.769Z,0.00
2018-03-21T01:19:40.754Z,0.00
2018-03-21T01:20:40.749Z,0.00
2018-03-21T01:21:40.751Z,0.00
2018-03-21T01:23:01.740Z,0.00
2018-03-21T01:23:40.734Z,0.00
2018-03-21T01:24:40.723Z,0.00
2018-03-21T01:25:40.718Z,0.00
2018-03-21T01:26:40.718Z,0.00
2018-03-21T01:27:40.712Z,0.00
2018-03-21T01:29:01.705Z,0.00
2018-03-21T01:29:40.690Z,0.00
2018-03-21T01:30:40.678Z,0.00
2018-03-21T01:31:40.717Z,0.00
2018-03-21T01:32:40.667Z,0.00
2018-03-21T01:33:40.664Z,0.00
2018-03-21T01:35:01.662Z,0.00
2018-03-21T01:35:40.654Z,0.00
2018-03-21T01:36:40.642Z,0.00
2018-03-21T01:37:40.642Z,0.00
2018-03-21T01:38:40.635Z,0.00
2018-03-21T01:39:40.619Z,0.00
2018-03-21T01:41:01.620Z,0.00
2018-03-21T01:41:40.607Z,0.00
2018-03-21T01:42:40.600Z,0.00
2018-03-21T01:43:40.597Z,0.00
2018-03-21T01:44:40.582Z,0.00
2018-03-21T01:45:40.573Z,0.00
2018-03-21T01:47:01.631Z,0.00
2018-03-21T01:47:40.571Z,0.00
2018-03-21T01:48:40.564Z,0.00
2018-03-21T01:49:40.552Z,0.00
2018-03-21T01:50:40.548Z,0.00
2018-03-21T01:51:40.542Z,0.00
2018-03-21T01:53:01.536Z,0.00
2018-03-21T01:53:40.532Z,0.00
2018-03-21T01:54:40.516Z,0.00
2018-03-21T01:55:40.508Z,0.00
2018-03-21T01:56:40.503Z,0.00
2018-03-21T01:57:40.495Z,0.00
2018-03-21T01:59:01.527Z,0.00
2018-03-21T01:59:40.485Z,0.00
2018-03-21T02:00:40.480Z,0.00
2018-03-21T02:01:40.468Z,0.00
2018-03-21T02:02:40.498Z,0.00
2018-03-21T02:03:40.460Z,0.00
2018-03-21T02:05:01.461Z,0.00
2018-03-21T02:05:40.448Z,0.00
2018-03-21T02:06:40.444Z,0.00
2018-03-21T02:07:40.429Z,0.00
2018-03-21T02:08:40.416Z,0.00
2018-03-21T02:09:40.412Z,0.00
2018-03-21T02:11:01.410Z,0.00
2018-03-21T02:11:40.402Z,0.00
2018-03-21T02:12:40.392Z,0.00
2018-03-21T02:13:40.390Z,0.00
2018-03-21T02:14:40.379Z,0.00
2018-03-21T02:15:40.377Z,0.00
2018-03-21T02:17:01.372Z,0.00
2018-03-21T02:17:40.370Z,0.00
2018-03-21T02:18:40.361Z,0.00
2018-03-21T02:19:40.353Z,0.00
2018-03-21T02:20:40.338Z,0.00
2018-03-21T02:21:40.333Z,0.00
2018-03-21T02:23:01.345Z,0.00
2018-03-21T02:23:40.318Z,0.00
2018-03-21T02:24:40.315Z,0.00
2018-03-21T02:25:40.305Z,0.00
2018-03-21T02:26:40.298Z,0.00
2018-03-21T02:27:40.304Z,0.00
2018-03-21T02:29:01.304Z,0.00
2018-03-21T02:29:40.273Z,0.00
2018-03-21T02:30:40.281Z,0.00
2018-03-21T02:31:40.266Z,0.00
2018-03-21T02:32:40.262Z,0.00
2018-03-21T02:33:40.258Z,0.00
2018-03-21T02:35:01.258Z,0.00
2018-03-21T02:35:40.241Z,0.00
2018-03-21T02:36:40.229Z,0.00
2018-03-21T02:37:40.223Z,0.00
2018-03-21T02:38:40.221Z,0.00
2018-03-21T02:39:40.208Z,0.00
2018-03-21T02:41:01.204Z,0.00
2018-03-21T02:41:40.198Z,0.00
2018-03-21T02:42:40.195Z,0.00
2018-03-21T02:43:40.192Z,0.00
2018-03-21T02:44:40.178Z,0.00
2018-03-21T02:45:40.167Z,0.00
2018-03-21T02:47:01.175Z,0.00
2018-03-21T02:47:40.167Z,0.00
2018-03-21T02:48:40.152Z,0.00
2018-03-21T02:49:40.145Z,0.00
2018-03-21T02:50:40.136Z,0.00
2018-03-21T02:51:40.130Z,0.00
2018-03-21T02:53:01.130Z,0.00
2018-03-21T02:53:40.111Z,0.00
2018-03-21T02:54:40.111Z,0.00
2018-03-21T02:55:40.102Z,0.00
2018-03-21T02:56:40.097Z,0.00
2018-03-21T02:57:40.094Z,0.00
2018-03-21T02:59:01.087Z,0.00
2018-03-21T02:59:40.078Z,0.00
2018-03-21T03:00:40.079Z,0.00
2018-03-21T03:01:40.057Z,0.00
2018-03-21T03:02:40.056Z,0.00
2018-03-21T03:03:40.051Z,0.00
2018-03-21T03:05:01.047Z,0.00
2018-03-21T03:05:40.029Z,0.00
2018-03-21T03:06:40.033Z,0.00
2018-03-21T03:07:40.017Z,0.00
2018-03-21T03:08:40.013Z,0.00
2018-03-21T03:09:40.007Z,0.00
2018-03-21T03:11:00.999Z,0.00
2018-03-21T03:11:39.989Z,0.00
2018-03-21T03:12:39.987Z,0.00
2018-03-21T03:13:39.984Z,0.00
2018-03-21T03:14:39.973Z,0.00
2018-03-21T03:15:39.966Z,0.00
2018-03-21T03:17:00.962Z,0.00
2018-03-21T03:17:39.953Z,0.00
2018-03-21T03:18:39.942Z,0.00
2018-03-21T03:19:39.937Z,0.00
2018-03-21T03:20:39.927Z,0.00
2018-03-21T03:21:39.920Z,0.00
2018-03-21T03:23:00.918Z,0.00
2018-03-21T03:23:39.907Z,0.00
2018-03-21T03:24:39.901Z,0.00
2018-03-21T03:25:39.899Z,0.00
2018-03-21T03:26:39.936Z,0.00
2018-03-21T03:27:39.881Z,0.00
2018-03-21T03:29:00.880Z,0.00
2018-03-21T03:29:39.870Z,0.00
2018-03-21T03:30:39.864Z,0.00
2018-03-21T03:31:39.859Z,0.00
2018-03-21T03:32:39.843Z,0.00
2018-03-21T03:33:39.844Z,0.00
2018-03-21T03:35:00.839Z,0.00
2018-03-21T03:35:39.827Z,0.00
2018-03-21T03:36:39.817Z,0.00
2018-03-21T03:37:39.812Z,0.00
2018-03-21T03:38:39.806Z,0.00
2018-03-21T03:39:39.803Z,0.00
2018-03-21T03:41:00.797Z,0.00
2018-03-21T03:41:39.788Z,0.00
2018-03-21T03:42:39.783Z,0.00
2018-03-21T03:43:39.779Z,0.00
2018-03-21T03:44:39.764Z,0.00
2018-03-21T03:45:39.761Z,0.00
2018-03-21T03:47:00.758Z,0.00
2018-03-21T03:47:39.743Z,0.00
2018-03-21T03:48:39.733Z,0.00
2018-03-21T03:49:39.729Z,0.00
2018-03-21T03:50:39.723Z,0.00
2018-03-21T03:51:39.717Z,0.00
2018-03-21T03:53:00.713Z,0.00
2018-03-21T03:53:39.704Z,0.00
2018-03-21T03:54:39.701Z,0.00
2018-03-21T03:55:39.690Z,0.00
2018-03-21T03:56:39.689Z,0.00
2018-03-21T03:57:39.676Z,0.00
2018-03-21T03:59:00.676Z,0.00
2018-03-21T03:59:39.660Z,0.00
2018-03-21T04:00:39.656Z,0.00
2018-03-21T04:01:39.659Z,0.00
2018-03-21T04:02:39.638Z,0.00
2018-03-21T04:03:39.647Z,0.00
2018-03-21T04:05:00.636Z,0.00
2018-03-21T04:05:39.622Z,0.00
2018-03-21T04:06:39.617Z,0.00
2018-03-21T04:07:39.606Z,0.00
2018-03-21T04:08:39.596Z,0.00
2018-03-21T04:09:39.590Z,0.00
2018-03-21T04:11:00.590Z,0.00
2018-03-21T04:11:39.579Z,0.00
2018-03-21T04:12:39.572Z,0.00
2018-03-21T04:13:39.579Z,0.00
2018-03-21T04:14:39.568Z,0.00
2018-03-21T04:15:39.558Z,0.00
2018-03-21T04:17:00.554Z,0.00
2018-03-21T04:17:39.540Z,0.00
2018-03-21T04:18:39.542Z,0.00
2018-03-21T04:19:39.525Z,0.00
2018-03-21T04:20:39.515Z,0.00
2018-03-21T04:21:39.513Z,0.00
2018-03-21T04:23:00.510Z,0.00
2018-03-21T04:23:39.494Z,0.00
2018-03-21T04:24:39.496Z,0.00
2018-03-21T04:25:39.482Z,0.00
2018-03-21T04:26:39.480Z,0.00
2018-03-21T04:27:39.479Z,0.00
2018-03-21T04:29:00.502Z,0.00
2018-03-21T04:29:39.458Z,0.00
2018-03-21T04:30:39.451Z,0.00
2018-03-21T04:31:39.460Z,0.00
2018-03-21T04:32:39.432Z,0.00
2018-03-21T04:33:39.428Z,0.00
2018-03-21T04:35:00.432Z,0.00
2018-03-21T04:35:39.422Z,0.00
2018-03-21T04:36:39.410Z,0.00
2018-03-21T04:37:39.401Z,0.00
2018-03-21T04:38:39.397Z,0.00
2018-03-21T04:39:39.392Z,0.00
2018-03-21T04:41:00.390Z,0.00
2018-03-21T04:41:39.380Z,0.00
2018-03-21T04:42:39.368Z,0.00
2018-03-21T04:43:39.372Z,0.00
2018-03-21T04:44:39.367Z,0.00
2018-03-21T04:45:39.351Z,0.00
2018-03-21T04:47:00.356Z,0.00
2018-03-21T04:47:39.335Z,0.00
2018-03-21T04:48:39.328Z,0.00
2018-03-21T04:49:39.326Z,0.00
2018-03-21T04:50:39.316Z,0.00
2018-03-21T04:51:39.329Z,0.00
2018-03-21T04:53:00.309Z,0.00
2018-03-21T04:53:39.331Z,0.00
2018-03-21T04:54:39.330Z,0.00
2018-03-21T04:55:39.314Z,0.00
2018-03-21T04:56:39.304Z,0.00
2018-03-21T04:57:39.262Z,0.00
2018-03-21T04:59:00.264Z,0.00
2018-03-21T04:59:39.248Z,0.00
2018-03-21T05:00:39.290Z,0.00
2018-03-21T05:01:39.264Z,0.00
2018-03-21T05:02:39.226Z,0.00
2018-03-21T05:03:39.218Z,0.00
2018-03-21T05:05:00.218Z,0.00
2018-03-21T05:05:39.209Z,0.00
2018-03-21T05:06:39.229Z,0.00
2018-03-21T05:07:39.202Z,0.00
2018-03-21T05:08:39.182Z,0.00
2018-03-21T05:09:39.169Z,0.00
2018-03-21T05:11:00.177Z,0.00
2018-03-21T05:11:39.157Z,0.00
2018-03-21T05:12:39.144Z,0.00
2018-03-21T05:13:39.139Z,0.00
2018-03-21T05:14:39.129Z,0.00
2018-03-21T05:15:39.126Z,0.00
2018-03-21T05:17:00.122Z,0.00
2018-03-21T05:17:39.109Z,0.00
2018-03-21T05:18:39.105Z,0.00
2018-03-21T05:19:39.093Z,0.00
2018-03-21T05:20:39.086Z,0.00
2018-03-21T05:21:39.073Z,0.00
2018-03-21T05:23:00.088Z,0.00
2018-03-21T05:23:39.058Z,0.00
2018-03-21T05:24:39.046Z,0.00
2018-03-21T05:25:39.042Z,0.00
2018-03-21T05:26:39.034Z,0.00
2018-03-21T05:27:39.031Z,0.00
2018-03-21T05:29:00.030Z,0.00
2018-03-21T05:29:39.011Z,0.00
2018-03-21T05:30:39.009Z,0.00
2018-03-21T05:31:38.994Z,0.00
2018-03-21T05:32:38.994Z,0.00
2018-03-21T05:33:38.977Z,0.00
2018-03-21T05:34:59.970Z,0.00
2018-03-21T05:35:38.961Z,0.00
2018-03-21T05:36:38.952Z,0.00
2018-03-21T05:37:38.943Z,0.00
2018-03-21T05:38:38.949Z,0.00
2018-03-21T05:39:38.925Z,0.00
2018-03-21T05:40:59.924Z,0.00
2018-03-21T05:41:38.915Z,0.00
2018-03-21T05:42:38.913Z,0.00
2018-03-21T05:43:38.897Z,0.00
2018-03-21T05:44:38.887Z,0.00
2018-03-21T05:45:38.878Z,0.00
2018-03-21T05:46:59.883Z,0.00
2018-03-21T05:47:38.863Z,0.00
2018-03-21T05:48:38.856Z,5.63
2018-03-21T05:49:38.847Z,5.63
2018-03-21T05:50:38.843Z,5.63
2018-03-21T05:51:38.834Z,5.63
2018-03-21T05:52:59.825Z,5.63
2018-03-21T05:53:38.826Z,5.63
2018-03-21T05:54:38.804Z,5.63
2018-03-21T05:55:38.803Z,5.63
2018-03-21T05:56:38.789Z,5.63
2018-03-21T05:57:38.779Z,5.63
2018-03-21T05:58:59.780Z,5.63
2018-03-21T05:59:38.775Z,5.63
2018-03-21T06:00:38.758Z,5.63
2018-03-21T06:01:38.756Z,5.63
2018-03-21T06:02:38.746Z,5.63
2018-03-21T06:03:38.742Z,5.63
2018-03-21T06:04:59.736Z,5.63
2018-03-21T06:05:38.721Z,5.63
2018-03-21T06:06:38.707Z,5.63
2018-03-21T06:07:38.701Z,11.25
2018-03-21T06:08:38.743Z,11.25
2018-03-21T06:09:38.681Z,11.25
2018-03-21T06:10:59.688Z,11.25
2018-03-21T06:11:38.674Z,11.25
2018-03-21T06:12:38.662Z,11.25
2018-03-21T06:13:38.652Z,11.25
2018-03-21T06:14:38.647Z,11.25
2018-03-21T06:15:38.639Z,11.25
2018-03-21T06:16:59.640Z,16.88
2018-03-21T06:17:38.624Z,16.88
2018-03-21T06:18:38.611Z,16.88
2018-03-21T06:19:38.599Z,16.88
2018-03-21T06:20:38.596Z,16.88
2018-03-21T06:21:38.588Z,22.50
2018-03-21T06:22:59.587Z,22.50
2018-03-21T06:23:38.589Z,22.50
2018-03-21T06:24:38.562Z,22.50
2018-03-21T06:25:38.558Z,22.50
2018-03-21T06:26:38.547Z,22.50
2018-03-21T06:27:38.541Z,22.50
2018-03-21T06:28:59.533Z,28.13
2018-03-21T06:29:38.524Z,28.13
2018-03-21T06:30:38.513Z,28.13
2018-03-21T06:31:38.505Z,28.13
2018-03-21T06:32:38.493Z,28.13
2018-03-21T06:33:38.486Z,28.13
2018-03-21T06:34:59.495Z,28.13
2018-03-21T06:35:38.473Z,33.75
2018-03-21T06:36:38.466Z,33.75
2018-03-21T06:37:38.465Z,33.75
2018-03-21T06:38:38.449Z,33.75
2018-03-21T06:39:38.444Z,33.75
2018-03-21T06:40:59.439Z,33.75
2018-03-21T06:41:38.422Z,39.38
2018-03-21T06:42:38.412Z,39.38
2018-03-21T06:43:38.410Z,39.38
2018-03-21T06:44:38.428Z,39.38
2018-03-21T06:45:38.388Z,39.38
2018-03-21T06:46:59.391Z,39.38
2018-03-21T06:47:38.372Z,39.38
2018-03-21T06:48:38.374Z,45.00
2018-03-21T06:49:38.358Z,45.00
2018-03-21T06:50:38.358Z,45.00
2018-03-21T06:51:38.347Z,45.00
2018-03-21T06:52:59.344Z,45.00
2018-03-21T06:53:38.322Z,50.63
2018-03-21T06:54:38.315Z,50.63
2018-03-21T06:55:38.311Z,50.63
2018-03-21T06:56:38.299Z,50.63
2018-03-21T06:57:38.298Z,50.63
2018-03-21T06:58:59.293Z,50.63
2018-03-21T06:59:38.276Z,56.25
2018-03-21T07:00:38.270Z,56.25
2018-03-21T07:01:38.261Z,56.25
2018-03-21T07:02:38.258Z,56.25
2018-03-21T07:03:38.243Z,56.25
2018-03-21T07:04:59.245Z,56.25
2018-03-21T07:05:38.226Z,56.25
2018-03-21T07:06:38.217Z,56.25
2018-03-21T07:07:38.212Z,56.25
2018-03-21T07:08:38.206Z,56.25
2018-03-21T07:09:38.196Z,61.88
2018-03-21T07:10:59.196Z,61.88
2018-03-21T07:11:38.181Z,61.88
2018-03-21T07:12:38.303Z,61.88
2018-03-21T07:13:38.166Z,56.25
2018-03-21T07:14:38.171Z,56.25
2018-03-21T07:15:38.152Z,56.25
2018-03-21T07:16:59.157Z,56.25
2018-03-21T07:17:38.134Z,61.88
2018-03-21T07:18:38.124Z,61.88
2018-03-21T07:19:38.116Z,61.88
2018-03-21T07:20:38.114Z,67.50
2018-03-21T07:21:38.105Z,73.13
2018-03-21T07:22:59.097Z,73.13
2018-03-21T07:23:38.091Z,78.75
2018-03-21T07:24:38.084Z,78.75
2018-03-21T07:25:38.071Z,78.75
2018-03-21T07:26:38.067Z,84.38
2018-03-21T07:27:38.054Z,84.38
2018-03-21T07:28:59.054Z,90.00
2018-03-21T07:29:38.037Z,95.63
2018-03-21T07:30:38.033Z,95.63
2018-03-21T07:31:38.022Z,101.25
2018-03-21T07:32:38.017Z,101.25
2018-03-21T07:33:38.012Z,101.25
2018-03-21T07:34:59.007Z,106.88
2018-03-21T07:35:37.992Z,106.88
2018-03-21T07:36:37.987Z,106.88
2018-03-21T07:37:37.975Z,106.88
2018-03-21T07:38:37.975Z,106.88
2018-03-21T07:39:37.974Z,112.50
2018-03-21T07:40:58.963Z,112.50
2018-03-21T07:41:37.950Z,112.50
2018-03-21T07:42:37.939Z,112.50
2018-03-21T07:43:37.932Z,118.13
2018-03-21T07:44:37.923Z,118.13
2018-03-21T07:45:37.919Z,118.13
2018-03-21T07:46:58.917Z,118.13
2018-03-21T07:47:37.905Z,118.13
2018-03-21T07:48:37.897Z,123.75
2018-03-21T07:49:37.892Z,123.75
2018-03-21T07:50:37.879Z,123.75
2018-03-21T07:51:37.872Z,123.75
2018-03-21T07:52:58.876Z,123.75
2018-03-21T07:53:37.862Z,129.38
2018-03-21T07:54:37.850Z,129.38
2018-03-21T07:55:37.838Z,129.38
2018-03-21T07:56:37.863Z,129.38
2018-03-21T07:57:37.828Z,129.38
2018-03-21T07:58:58.829Z,135.00
2018-03-21T07:59:37.812Z,135.00
2018-03-21T08:00:37.807Z,135.00
2018-03-21T08:01:37.794Z,135.00
2018-03-21T08:02:37.794Z,135.00
2018-03-21T08:03:37.783Z,135.00
2018-03-21T08:04:58.785Z,140.63
2018-03-21T08:05:37.788Z,140.63
2018-03-21T08:06:37.759Z,140.63
2018-03-21T08:07:37.756Z,140.63
2018-03-21T08:08:37.774Z,146.25
2018-03-21T08:09:37.746Z,146.25
2018-03-21T08:10:58.742Z,146.25
2018-03-21T08:11:37.727Z,146.25
2018-03-21T08:12:37.718Z,146.25
2018-03-21T08:13:37.716Z,151.88
2018-03-21T08:14:37.702Z,151.88
2018-03-21T08:15:37.700Z,151.88
2018-03-21T08:16:58.696Z,151.88
2018-03-21T08:17:37.682Z,151.88
2018-03-21T08:18:37.674Z,151.88
2018-03-21T08:19:37.702Z,157.50
2018-03-21T08:20:37.667Z,157.50
2018-03-21T08:21:37.659Z,157.50
2018-03-21T08:22:58.655Z,157.50
2018-03-21T08:23:37.672Z,157.50
2018-03-21T08:24:37.643Z,157.50
2018-03-21T08:25:37.655Z,163.13
2018-03-21T08:26:37.624Z,163.13
2018-03-21T08:27:37.620Z,163.13
2018-03-21T08:28:58.639Z,163.13
2018-03-21T08:29:37.603Z,163.13
2018-03-21T08:30:37.592Z,163.13
2018-03-21T08:31:37.619Z,168.75
2018-03-21T08:32:37.576Z,168.75
2018-03-21T08:33:37.573Z,168.75
2018-03-21T08:34:58.570Z,168.75
2018-03-21T08:35:37.556Z,168.75
2018-03-21T08:36:37.555Z,168.75
2018-03-21T08:37:37.554Z,168.75
2018-03-21T08:38:37.541Z,168.75
2018-03-21T08:39:37.557Z,168.75
2018-03-21T08:40:58.528Z,168.75
2018-03-21T08:41:37.522Z,168.75
2018-03-21T08:42:37.518Z,168.75
2018-03-21T08:43:37.506Z,174.38
2018-03-21T08:44:37.499Z,174.38
2018-03-21T08:45:37.488Z,174.38
2018-03-21T08:46:58.494Z,174.38
2018-03-21T08:47:37.478Z,174.38
2018-03-21T08:48:37.474Z,174.38
2018-03-21T08:49:37.528Z,180.00
2018-03-21T08:50:37.470Z,180.00
2018-03-21T08:51:37.451Z,180.00
2018-03-21T08:52:58.454Z,180.00
2018-03-21T08:53:37.440Z,180.00
2018-03-21T08:54:37.442Z,180.00
2018-03-21T08:55:37.479Z,185.63
2018-03-21T08:56:37.419Z,185.63
2018-03-21T08:57:37.413Z,180.00
2018-03-21T08:58:58.409Z,185.63
2018-03-21T08:59:37.407Z,185.63
2018-03-21T09:00:37.394Z,185.63
2018-03-21T09:01:37.385Z,185.63
2018-03-21T09:02:37.382Z,185.63
2018-03-21T09:03:37.376Z,191.25
2018-03-21T09:04:58.375Z,191.25
2018-03-21T09:05:37.364Z,196.88
2018-03-21T09:06:37.358Z,191.25
2018-03-21T09:07:37.352Z,191.25
2018-03-21T09:08:37.345Z,191.25
2018-03-21T09:09:37.334Z,191.25
2018-03-21T09:10:58.349Z,191.25
2018-03-21T09:11:37.319Z,191.25
2018-03-21T09:12:37.357Z,196.88
2018-03-21T09:13:37.306Z,196.88
2018-03-21T09:14:37.305Z,196.88
2018-03-21T09:15:37.298Z,196.88
2018-03-21T09:16:58.294Z,196.88
2018-03-21T09:17:37.288Z,196.88
2018-03-21T09:18:37.279Z,196.88
2018-03-21T09:19:37.277Z,191.25
2018-03-21T09:20:37.312Z,191.25
2018-03-21T09:21:37.261Z,196.88
2018-03-21T09:22:58.261Z,196.88
2018-03-21T09:23:37.252Z,196.88
2018-03-21T09:24:37.240Z,196.88
2018-03-21T09:25:37.233Z,196.88
2018-03-21T09:26:37.228Z,196.88
2018-03-21T09:27:37.223Z,196.88
2018-03-21T09:28:58.223Z,196.88
2018-03-21T09:29:37.209Z,196.88
2018-03-21T09:30:37.204Z,196.88
2018-03-21T09:31:37.199Z,196.88
2018-03-21T09:32:37.193Z,196.88
2018-03-21T09:33:37.197Z,202.50
2018-03-21T09:34:58.192Z,196.88
2018-03-21T09:35:37.176Z,196.88
2018-03-21T09:36:37.169Z,196.88
2018-03-21T09:37:37.164Z,196.88
2018-03-21T09:38:37.159Z,202.50
2018-03-21T09:39:37.149Z,196.88
2018-03-21T09:40:58.151Z,196.88
2018-03-21T09:41:37.136Z,196.88
2018-03-21T09:42:37.131Z,196.88
2018-03-21T09:43:37.122Z,196.88
2018-03-21T09:44:37.120Z,196.88
2018-03-21T09:45:37.114Z,196.88
2018-03-21T09:46:58.118Z,196.88
2018-03-21T09:47:37.102Z,196.88
2018-03-21T09:48:37.150Z,196.88
2018-03-21T09:49:37.103Z,196.88
2018-03-21T09:50:37.087Z,196.88
2018-03-21T09:51:37.079Z,196.88
2018-03-21T09:52:58.084Z,196.88
2018-03-21T09:53:37.072Z,196.88
2018-03-21T09:54:37.066Z,196.88
2018-03-21T09:55:37.051Z,196.88
2018-03-21T09:56:37.044Z,202.50
2018-03-21T09:57:37.041Z,202.50
2018-03-21T09:58:58.043Z,202.50
2018-03-21T09:59:37.028Z,202.50
2018-03-21T10:00:37.032Z,202.50
2018-03-21T10:01:37.022Z,202.50
2018-03-21T10:02:37.011Z,202.50
2018-03-21T10:03:37.006Z,202.50
2018-03-21T10:04:58.006Z,202.50
2018-03-21T10:05:36.999Z,202.50
2018-03-21T10:06:36.994Z,202.50
2018-03-21T10:07:36.984Z,191.25
2018-03-21T10:08:36.977Z,191.25
2018-03-21T10:09:36.980Z,202.50
2018-03-21T10:10:57.976Z,196.88
2018-03-21T10:11:36.962Z,196.88
2018-03-21T10:12:36.958Z,196.88
2018-03-21T10:13:36.944Z,191.25
2018-03-21T10:14:36.942Z,185.63
2018-03-21T10:15:36.936Z,180.00
2018-03-21T10:16:57.933Z,191.25
2018-03-21T10:17:36.924Z,191.25
2018-03-21T10:18:36.919Z,191.25
2018-03-21T10:19:36.915Z,196.88
2018-03-21T10:20:36.909Z,196.88
2018-03-21T10:21:36.904Z,191.25
2018-03-21T10:22:57.901Z,196.88
2018-03-21T10:23:36.893Z,196.88
2018-03-21T10:24:36.885Z,191.25
2018-03-21T10:25:36.881Z,185.63
2018-03-21T10:26:36.878Z,191.25
2018-03-21T10:27:36.877Z,185.63
2018-03-21T10:28:57.912Z,185.63
2018-03-21T10:29:36.854Z,191.25
2018-03-21T10:30:36.846Z,196.88
2018-03-21T10:31:36.843Z,196.88
2018-03-21T10:32:36.837Z,196.88
2018-03-21T10:33:36.834Z,196.88
2018-03-21T10:34:57.843Z,191.25
2018-03-21T10:35:36.832Z,191.25
2018-03-21T10:36:36.813Z,185.63
2018-03-21T10:37:36.817Z,191.25
2018-03-21T10:38:36.806Z,185.63
2018-03-21T10:39:36.804Z,185.63
2018-03-21T10:40:57.801Z,180.00
2018-03-21T10:41:36.788Z,180.00
2018-03-21T10:42:36.787Z,185.63
2018-03-21T10:43:36.780Z,191.25
2018-03-21T10:44:36.768Z,191.25
2018-03-21T10:45:36.764Z,185.63
2018-03-21T10:46:57.772Z,185.63
2018-03-21T10:47:36.749Z,185.63
2018-03-21T10:48:36.746Z,185.63
2018-03-21T10:49:36.744Z,185.63
2018-03-21T10:50:36.735Z,180.00
2018-03-21T10:51:36.739Z,180.00
2018-03-21T10:52:57.773Z,180.00
2018-03-21T10:53:36.719Z,174.38
2018-03-21T10:54:36.725Z,174.38
2018-03-21T10:55:36.708Z,174.38
2018-03-21T10:56:36.749Z,174.38
2018-03-21T10:57:36.697Z,168.75
2018-03-21T10:58:57.725Z,168.75
2018-03-21T10:59:36.686Z,168.75
2018-03-21T11:00:36.676Z,168.75
2018-03-21T11:01:36.684Z,168.75
2018-03-21T11:02:36.696Z,168.75
2018-03-21T11:03:36.662Z,168.75
2018-03-21T11:04:57.660Z,168.75
2018-03-21T11:05:36.652Z,163.13
2018-03-21T11:06:36.651Z,163.13
2018-03-21T11:07:36.698Z,168.75
2018-03-21T11:08:36.636Z,163.13
2018-03-21T11:09:36.630Z,163.13
2018-03-21T11:10:57.634Z,163.13
2018-03-21T11:11:36.621Z,157.50
2018-03-21T11:12:36.608Z,157.50
2018-03-21T11:13:36.603Z,157.50
2018-03-21T11:14:36.598Z,151.88
2018-03-21T11:15:36.593Z,151.88
2018-03-21T11:16:57.593Z,151.88
2018-03-21T11:17:36.583Z,151.88
2018-03-21T11:18:36.578Z,151.88
2018-03-21T11:19:36.570Z,151.88
2018-03-21T11:20:36.562Z,146.25
2018-03-21T11:21:36.558Z,146.25
2018-03-21T11:22:57.560Z,146.25
2018-03-21T11:23:36.556Z,146.25
2018-03-21T11:24:36.547Z,146.25
2018-03-21T11:25:36.543Z,140.63
2018-03-21T11:26:36.535Z,140.63
2018-03-21T11:27:36.530Z,140.63
2018-03-21T11:28:57.527Z,140.63
2018-03-21T11:29:36.513Z,140.63
2018-03-21T11:30:36.511Z,129.38
2018-03-21T11:31:36.502Z,135.00
2018-03-21T11:32:36.496Z,135.00
2018-03-21T11:33:36.488Z,135.00
2018-03-21T11:34:57.489Z,135.00
2018-03-21T11:35:36.475Z,129.38
2018-03-21T11:36:36.472Z,118.13
2018-03-21T11:37:36.478Z,123.75
2018-03-21T11:38:36.468Z,101.25
2018-03-21T11:39:36.457Z,101.25
2018-03-21T11:40:57.460Z,106.88
2018-03-21T11:41:36.444Z,118.13
2018-03-21T11:42:36.440Z,112.50
2018-03-21T11:43:36.433Z,123.75
2018-03-21T11:44:36.422Z,112.50
2018-03-21T11:45:36.421Z,112.50
2018-03-21T11:46:57.427Z,112.50
2018-03-21T11:47:36.407Z,118.13
2018-03-21T11:48:36.403Z,112.50
2018-03-21T11:49:36.410Z,106.88
2018-03-21T11:50:36.392Z,106.88
2018-03-21T11:51:36.394Z,106.88
2018-03-21T11:52:57.383Z,106.88
2018-03-21T11:53:36.370Z,106.88
2018-03-21T11:54:36.371Z,106.88
2018-03-21T11:55:36.363Z,106.88
2018-03-21T11:56:36.351Z,106.88
2018-03-21T11:57:36.354Z,101.25
2018-03-21T11:58:57.353Z,101.25
2018-03-21T11:59:36.347Z,95.63
2018-03-21T12:00:36.339Z,95.63
2018-03-21T12:01:36.335Z,95.63
2018-03-21T12:02:36.317Z,95.63
2018-03-21T12:03:36.316Z,95.63
2018-03-21T12:04:57.313Z,101.25
2018-03-21T12:05:36.300Z,101.25
2018-03-21T12:06:36.299Z,95.63
2018-03-21T12:07:36.300Z,90.00
2018-03-21T12:08:36.332Z,90.00
2018-03-21T12:09:36.279Z,90.00
2018-03-21T12:10:57.282Z,84.38
2018-03-21T12:11:36.265Z,90.00
2018-03-21T12:12:36.266Z,84.38
2018-03-21T12:13:36.252Z,78.75
2018-03-21T12:14:36.279Z,78.75
2018-03-21T12:15:36.241Z,78.75
2018-03-21T12:16:57.243Z,78.75
2018-03-21T12:17:36.228Z,84.38
2018-03-21T12:18:36.232Z,90.00
2018-03-21T12:19:36.216Z,84.38
2018-03-21T12:20:36.206Z,84.38
2018-03-21T12:21:36.206Z,84.38
2018-03-21T12:22:57.203Z,84.38
2018-03-21T12:23:36.200Z,84.38
2018-03-21T12:24:36.184Z,78.75
2018-03-21T12:25:36.177Z,78.75
2018-03-21T12:26:36.182Z,78.75
2018-03-21T12:27:36.170Z,78.75
2018-03-21T12:28:57.169Z,78.75
2018-03-21T12:29:36.156Z,78.75
2018-03-21T12:30:36.149Z,78.75
2018-03-21T12:31:36.153Z,78.75
2018-03-21T12:32:36.133Z,78.75
2018-03-21T12:33:36.124Z,73.13
2018-03-21T12:34:57.133Z,67.50
2018-03-21T12:35:36.116Z,73.13
2018-03-21T12:36:36.108Z,67.50
2018-03-21T12:37:36.102Z,73.13
2018-03-21T12:38:36.097Z,67.50
2018-03-21T12:39:36.087Z,67.50
2018-03-21T12:40:57.087Z,67.50
2018-03-21T12:41:36.082Z,67.50
2018-03-21T12:42:36.073Z,61.88
2018-03-21T12:43:36.070Z,56.25
2018-03-21T12:44:36.103Z,56.25
2018-03-21T12:45:36.050Z,61.88
2018-03-21T12:46:57.055Z,61.88
2018-03-21T12:47:36.051Z,56.25
2018-03-21T12:48:36.034Z,56.25
2018-03-21T12:49:36.026Z,61.88
2018-03-21T12:50:36.020Z,61.88
2018-03-21T12:51:36.012Z,61.88
2018-03-21T12:52:57.008Z,61.88
2018-03-21T12:53:36.001Z,61.88
2018-03-21T12:54:36.000Z,61.88
2018-03-21T12:55:36.086Z,61.88